createdAt,value
2022-09-04T00:01:45.935Z,3.10
2022-09-04T00:04:19.689Z,2.53
2022-09-04T00:06:58.003Z,3.03
2022-09-04T00:09:29.404Z,2.97
2022-09-04T00:11:56.036Z,2.90
2022-09-04T00:14:50.011Z,2.80
2022-09-04T00:17:24.019Z,2.33
2022-09-04T00:19:56.339Z,2.23
2022-09-04T00:22:33.902Z,2.63
2022-09-04T00:25:29.875Z,3.27
2022-09-04T00:28:04.868Z,2.80
2022-09-04T00:30:32.636Z,2.80
2022-09-04T00:33:12.381Z,2.97
2022-09-04T00:36:08.150Z,3.10
2022-09-04T00:38:44.556Z,2.90
2022-09-04T00:41:34.961Z,3.10
2022-09-04T00:44:13.621Z,2.63
2022-09-04T00:47:14.330Z,3.63
2022-09-04T00:50:01.690Z,3.00
2022-09-04T00:53:10.560Z,3.23
2022-09-04T00:55:42.947Z,3.30
2022-09-04T00:58:39.854Z,3.40
2022-09-04T01:01:06.713Z,2.90
2022-09-04T01:03:58.513Z,3.03
2022-09-04T01:06:35.790Z,3.10
2022-09-04T01:09:02.351Z,3.43
2022-09-04T01:11:43.393Z,3.07
2022-09-04T01:14:16.034Z,3.17
2022-09-04T01:16:55.054Z,3.50
2022-09-04T01:19:40.563Z,2.53
2022-09-04T01:22:21.646Z,3.17
2022-09-04T01:25:03.357Z,2.93
2022-09-04T01:27:31.371Z,2.57
2022-09-04T01:30:06.403Z,3.03
2022-09-04T01:33:00.068Z,3.10
2022-09-04T01:35:30.993Z,3.40
2022-09-04T01:38:18.307Z,3.60
2022-09-04T01:40:58.648Z,2.87
2022-09-04T01:43:25.433Z,2.60
2022-09-04T01:46:07.788Z,3.20
2022-09-04T01:48:50.068Z,3.63
2022-09-04T01:51:44.543Z,3.33
2022-09-04T01:54:50.843Z,3.00
2022-09-04T01:57:26.332Z,3.37
2022-09-04T02:00:16.828Z,2.70
2022-09-04T02:02:55.542Z,2.80
2022-09-04T02:05:31.094Z,2.83
2022-09-04T02:08:12.662Z,3.17
2022-09-04T02:10:53.936Z,3.60
2022-09-04T02:13:34.339Z,3.37
2022-09-04T02:16:22.157Z,2.70
2022-09-04T02:19:05.091Z,2.80
2022-09-04T02:21:36.970Z,2.53
2022-09-04T02:24:20.380Z,4.07
2022-09-04T02:26:53.043Z,3.03
2022-09-04T02:29:25.202Z,2.77
2022-09-04T02:32:03.930Z,2.50
2022-09-04T02:34:38.940Z,2.90
2022-09-04T02:37:31.255Z,2.60
2022-09-04T02:40:12.115Z,3.07
2022-09-04T02:42:52.701Z,2.70
2022-09-04T02:45:30.204Z,3.60
2022-09-04T02:48:22.318Z,3.17
2022-09-04T02:51:28.944Z,3.27
2022-09-04T02:54:10.961Z,3.43
2022-09-04T02:56:49.304Z,2.60
2022-09-04T02:59:35.611Z,3.03
2022-09-04T03:02:10.393Z,2.70
2022-09-04T03:04:44.422Z,3.83
2022-09-04T03:07:21.313Z,3.00
2022-09-04T03:10:10.416Z,2.77
2022-09-04T03:12:53.303Z,3.10
2022-09-04T03:15:38.651Z,3.00
2022-09-04T03:18:17.155Z,2.83
2022-09-04T03:20:51.272Z,3.37
2022-09-04T03:23:21.912Z,3.37
2022-09-04T03:25:50.855Z,3.53
2022-09-04T03:28:29.171Z,2.80
2022-09-04T03:30:57.616Z,2.83
2022-09-04T03:33:33.103Z,2.90
2022-09-04T03:36:10.668Z,3.13
2022-09-04T03:39:02.717Z,3.47
2022-09-04T03:41:35.311Z,2.87
2022-09-04T03:44:29.913Z,3.07
2022-09-04T03:47:19.815Z,2.50
2022-09-04T03:50:23.868Z,3.03
2022-09-04T03:53:20.735Z,3.60
2022-09-04T03:56:08.852Z,3.50
2022-09-04T03:58:53.235Z,3.20
2022-09-04T04:01:31.855Z,3.40
2022-09-04T04:04:36.146Z,2.93
2022-09-04T04:07:21.197Z,2.57
2022-09-04T04:10:02.331Z,2.63
2022-09-04T04:12:28.964Z,2.73
2022-09-04T04:15:36.843Z,3.00
2022-09-04T04:18:22.182Z,2.60
2022-09-04T04:20:56.779Z,3.30
2022-09-04T04:23:57.023Z,3.23
2022-09-04T04:26:26.678Z,2.90
2022-09-04T04:29:02.818Z,2.87
2022-09-04T04:32:10.556Z,2.50
2022-09-04T04:35:16.583Z,2.90
2022-09-04T04:37:56.300Z,3.30
2022-09-04T04:40:32.931Z,3.07
2022-09-04T04:43:18.182Z,4.57
2022-09-04T04:45:50.481Z,3.50
2022-09-04T04:48:37.233Z,3.67
2022-09-04T04:51:19.186Z,3.50
2022-09-04T04:54:17.531Z,3.10
2022-09-04T04:57:02.596Z,2.87
2022-09-04T04:59:44.124Z,2.80
2022-09-04T05:02:28.762Z,2.80
2022-09-04T05:05:04.159Z,3.07
2022-09-04T05:07:34.848Z,2.80
2022-09-04T05:10:11.011Z,2.70
2022-09-04T05:13:01.843Z,2.83
2022-09-04T05:16:08.487Z,3.30
2022-09-04T05:19:09.261Z,2.50
2022-09-04T05:21:49.414Z,4.47
2022-09-04T05:24:34.092Z,3.00
2022-09-04T05:27:39.703Z,2.73
2022-09-04T05:30:20.621Z,3.13
2022-09-04T05:33:30.458Z,3.10
2022-09-04T05:36:16.708Z,2.73
2022-09-04T05:38:59.921Z,3.07
2022-09-04T05:41:35.676Z,3.20
2022-09-04T05:44:15.346Z,3.20
2022-09-04T05:47:05.616Z,3.20
2022-09-04T05:49:41.629Z,3.10
2022-09-04T05:52:37.455Z,2.80
2022-09-04T05:55:21.892Z,2.83
2022-09-04T05:58:11.300Z,2.60
2022-09-04T06:01:08.411Z,3.13
2022-09-04T06:03:40.876Z,3.40
2022-09-04T06:06:37.552Z,4.13
2022-09-04T06:09:10.462Z,2.60
2022-09-04T06:11:45.339Z,3.50
2022-09-04T06:14:11.800Z,2.80
2022-09-04T06:17:03.328Z,2.67
2022-09-04T06:19:43.001Z,2.87
2022-09-04T06:22:40.350Z,2.90
2022-09-04T06:25:37.879Z,2.30
2022-09-04T06:28:29.351Z,2.97
2022-09-04T06:31:14.083Z,2.97
2022-09-04T06:34:21.721Z,3.33
2022-09-04T06:36:56.852Z,2.90
2022-09-04T06:39:31.598Z,3.10
2022-09-04T06:42:21.745Z,2.60
2022-09-04T06:44:58.876Z,3.40
2022-09-04T06:47:45.237Z,2.90
2022-09-04T06:50:24.637Z,2.20
2022-09-04T06:53:04.493Z,2.47
2022-09-04T06:55:46.796Z,2.80
2022-09-04T06:58:24.298Z,2.27
2022-09-04T07:00:54.191Z,2.83
2022-09-04T07:03:31.344Z,2.50
2022-09-04T07:06:15.868Z,2.30
2022-09-04T07:09:07.771Z,2.70
2022-09-04T07:12:02.249Z,2.77
2022-09-04T07:14:50.412Z,2.57
2022-09-04T07:17:57.332Z,4.50
2022-09-04T07:20:33.645Z,2.90
2022-09-04T07:23:25.220Z,2.97
2022-09-04T07:26:11.014Z,2.60
2022-09-04T07:28:57.295Z,2.60
2022-09-04T07:31:32.875Z,3.17
2022-09-04T07:34:19.511Z,2.03
2022-09-04T07:36:55.301Z,3.27
2022-09-04T07:39:59.904Z,2.53
2022-09-04T07:42:37.780Z,3.37
2022-09-04T07:45:22.666Z,2.40
2022-09-04T07:48:08.037Z,3.20
2022-09-04T07:50:47.892Z,2.43
2022-09-04T07:53:14.795Z,2.43
2022-09-04T07:55:46.758Z,2.70
2022-09-04T07:58:50.943Z,3.33
2022-09-04T08:01:44.660Z,3.10
2022-09-04T08:04:20.530Z,2.77
2022-09-04T08:06:57.951Z,2.90
2022-09-04T08:09:33.874Z,2.80
2022-09-04T08:12:17.551Z,2.50
2022-09-04T08:14:56.557Z,2.60
2022-09-04T08:17:33.205Z,2.90
2022-09-04T08:20:28.986Z,2.57
2022-09-04T08:23:05.875Z,2.60
2022-09-04T08:25:51.069Z,2.97
2022-09-04T08:28:34.235Z,2.87
2022-09-04T08:31:20.909Z,2.50
2022-09-04T08:34:00.035Z,2.83
2022-09-04T08:36:51.764Z,3.00
2022-09-04T08:39:39.374Z,2.63
2022-09-04T08:42:17.773Z,2.20
2022-09-04T08:45:15.337Z,2.70
2022-09-04T08:48:19.296Z,3.77
2022-09-04T08:51:09.441Z,3.07
2022-09-04T08:53:58.042Z,2.63
2022-09-04T08:56:48.789Z,3.03
2022-09-04T09:00:09.968Z,3.30
2022-09-04T09:02:58.074Z,3.17
2022-09-04T09:05:42.914Z,2.60
2022-09-04T09:08:31.539Z,2.30
2022-09-04T09:11:16.911Z,2.70
2022-09-04T09:13:58.747Z,3.50
2022-09-04T09:16:44.137Z,2.90
2022-09-04T09:19:28.916Z,2.87
2022-09-04T09:21:58.492Z,2.83
2022-09-04T09:24:40.486Z,2.77
2022-09-04T09:27:31.713Z,2.33
2022-09-04T09:30:07.901Z,3.13
2022-09-04T09:33:02.643Z,2.60
2022-09-04T09:35:51.569Z,2.70
2022-09-04T09:38:34.860Z,2.47
2022-09-04T09:41:01.254Z,2.40
2022-09-04T09:44:10.964Z,2.53
2022-09-04T09:46:50.659Z,2.47
2022-09-04T09:49:30.500Z,3.10
2022-09-04T09:52:21.686Z,2.60
2022-09-04T09:55:15.883Z,2.80
2022-09-04T09:58:04.108Z,2.90
2022-09-04T10:00:46.457Z,2.30
2022-09-04T10:03:39.085Z,3.17
2022-09-04T10:06:24.327Z,2.67
2022-09-04T10:09:24.700Z,3.20
2022-09-04T10:12:16.311Z,2.50
2022-09-04T10:15:13.825Z,3.10
2022-09-04T10:18:11.254Z,2.40
2022-09-04T10:20:58.848Z,2.43
2022-09-04T10:24:06.998Z,3.03
2022-09-04T10:26:35.984Z,2.73
2022-09-04T10:29:32.968Z,2.70
2022-09-04T10:32:11.734Z,2.90
2022-09-04T10:35:03.209Z,2.63
2022-09-04T10:37:47.999Z,2.13
2022-09-04T10:40:38.553Z,3.50
2022-09-04T10:43:37.325Z,2.73
2022-09-04T10:46:23.136Z,3.23
2022-09-04T10:48:56.048Z,2.97
2022-09-04T10:51:56.626Z,3.50
2022-09-04T10:54:43.751Z,2.83
2022-09-04T10:57:37.410Z,2.63
2022-09-04T11:00:16.495Z,3.40
2022-09-04T11:03:20.370Z,2.97
2022-09-04T11:06:23.679Z,2.70
2022-09-04T11:09:31.808Z,2.80
2022-09-04T11:12:25.604Z,3.37
2022-09-04T11:15:03.767Z,3.30
2022-09-04T11:17:55.600Z,3.00
2022-09-04T11:20:36.607Z,2.90
2022-09-04T11:23:36.731Z,2.40
2022-09-04T11:26:23.553Z,2.83
2022-09-04T11:29:11.041Z,3.70
2022-09-04T11:32:19.639Z,2.90
2022-09-04T11:34:57.185Z,3.47
2022-09-04T11:37:44.756Z,3.50
2022-09-04T11:40:39.652Z,2.97
2022-09-04T11:43:15.363Z,3.10
2022-09-04T11:46:35.588Z,3.50
2022-09-04T11:49:20.719Z,3.00
2022-09-04T11:51:52.286Z,3.60
2022-09-04T11:54:37.391Z,2.60
2022-09-04T11:57:03.859Z,2.77
2022-09-04T12:00:06.387Z,3.10
2022-09-04T12:02:50.105Z,3.03
2022-09-04T12:05:47.839Z,4.00
2022-09-04T12:08:36.150Z,3.73
2022-09-04T12:11:14.970Z,2.87
2022-09-04T12:13:56.368Z,2.90
2022-09-04T12:17:00.345Z,3.47
2022-09-04T12:19:53.832Z,3.80
2022-09-04T12:22:57.127Z,4.00
2022-09-04T12:25:36.016Z,3.20
2022-09-04T12:28:10.334Z,3.43
2022-09-04T12:31:01.615Z,3.13
2022-09-04T12:33:40.433Z,3.93
2022-09-04T12:36:15.729Z,3.53
2022-09-04T12:39:14.431Z,3.10
2022-09-04T12:42:31.361Z,2.73
2022-09-04T12:45:06.800Z,3.40
2022-09-04T12:47:40.919Z,2.73
2022-09-04T12:50:33.138Z,3.10
2022-09-04T12:53:05.591Z,4.00
2022-09-04T12:55:45.786Z,3.20
2022-09-04T12:58:59.421Z,3.43
2022-09-04T13:01:39.086Z,3.40
2022-09-04T13:04:11.707Z,3.13
2022-09-04T13:06:59.871Z,3.63
2022-09-04T13:10:05.991Z,3.60
2022-09-04T13:13:03.786Z,2.87
2022-09-04T13:15:52.035Z,3.03
2022-09-04T13:18:41.202Z,3.73
2022-09-04T13:21:36.995Z,3.40
2022-09-04T13:24:13.283Z,3.13
2022-09-04T13:26:51.701Z,3.17
2022-09-04T13:29:40.271Z,3.33
2022-09-04T13:32:27.734Z,3.30
2022-09-04T13:35:36.575Z,3.60
2022-09-04T13:38:09.736Z,3.20
2022-09-04T13:41:00.133Z,4.93
2022-09-04T13:43:52.929Z,3.60
2022-09-04T13:46:30.077Z,3.97
2022-09-04T13:49:05.642Z,3.43
2022-09-04T13:51:45.707Z,3.13
2022-09-04T13:54:24.838Z,3.70
2022-09-04T13:57:28.344Z,3.33
2022-09-04T14:00:02.861Z,3.10
2022-09-04T14:02:32.117Z,4.07
2022-09-04T14:05:07.073Z,3.70
2022-09-04T14:07:36.186Z,3.33
2022-09-04T14:10:13.207Z,3.50
2022-09-04T14:12:53.587Z,3.73
2022-09-04T14:15:28.457Z,3.30
2022-09-04T14:18:13.567Z,3.30
2022-09-04T14:21:01.353Z,3.60
2022-09-04T14:23:46.031Z,3.90
2022-09-04T14:26:35.722Z,3.50
2022-09-04T14:29:09.695Z,3.43
2022-09-04T14:31:49.147Z,3.13
2022-09-04T14:34:36.289Z,3.83
2022-09-04T14:37:16.092Z,4.33
2022-09-04T14:40:05.453Z,3.43
2022-09-04T14:42:47.856Z,3.60
2022-09-04T14:45:18.235Z,3.17
2022-09-04T14:47:54.644Z,5.00
2022-09-04T14:50:28.547Z,3.77
2022-09-04T14:53:01.511Z,3.57
2022-09-04T14:55:31.423Z,3.67
2022-09-04T14:58:12.939Z,3.50
2022-09-04T15:00:57.380Z,3.70
2022-09-04T15:03:28.767Z,3.93
2022-09-04T15:05:58.853Z,4.43
2022-09-04T15:08:40.523Z,3.60
2022-09-04T15:11:14.136Z,3.30
2022-09-04T15:13:53.867Z,3.00
2022-09-04T15:16:33.627Z,3.03
2022-09-04T15:19:33.124Z,4.10
2022-09-04T15:22:08.630Z,3.47
2022-09-04T15:24:44.431Z,3.53
2022-09-04T15:27:20.019Z,3.27
2022-09-04T15:30:03.397Z,3.17
2022-09-04T15:32:39.873Z,3.23
2022-09-04T15:35:08.493Z,2.97
2022-09-04T15:37:35.225Z,3.23
2022-09-04T15:40:12.081Z,3.10
2022-09-04T15:42:47.067Z,3.70
2022-09-04T15:45:22.945Z,3.10
2022-09-04T15:47:56.138Z,3.40
2022-09-04T15:50:26.162Z,3.43
2022-09-04T15:52:58.931Z,2.43
2022-09-04T15:55:34.607Z,4.10
2022-09-04T15:58:25.370Z,3.53
2022-09-04T16:01:08.124Z,3.50
2022-09-04T16:04:01.354Z,3.80
2022-09-04T16:06:32.199Z,3.20
2022-09-04T16:09:19.446Z,3.17
2022-09-04T16:12:17.326Z,3.33
2022-09-04T16:14:50.415Z,3.27
2022-09-04T16:17:26.219Z,3.77
2022-09-04T16:20:04.546Z,4.80
2022-09-04T16:22:51.863Z,3.57
2022-09-04T16:25:19.147Z,3.90
2022-09-04T16:28:11.507Z,3.80
2022-09-04T16:30:55.784Z,2.67
2022-09-04T16:33:29.374Z,3.87
2022-09-04T16:36:02.329Z,4.60
2022-09-04T16:38:32.531Z,3.43
2022-09-04T16:41:02.444Z,3.97
2022-09-04T16:43:34.291Z,3.70
2022-09-04T16:46:12.987Z,4.10
2022-09-04T16:48:52.977Z,3.30
2022-09-04T16:51:39.738Z,3.70
2022-09-04T16:54:35.602Z,3.87
2022-09-04T16:57:15.604Z,3.10
2022-09-04T17:00:03.761Z,2.83
2022-09-04T17:02:54.247Z,3.80
2022-09-04T17:05:39.970Z,4.50
2022-09-04T17:08:15.167Z,3.70
2022-09-04T17:10:54.882Z,4.30
2022-09-04T17:13:28.685Z,3.57
2022-09-04T17:16:01.243Z,4.10
2022-09-04T17:18:28.994Z,4.30
2022-09-04T17:24:25.195Z,5.00
2022-09-04T17:28:56.163Z,4.27
2022-09-04T17:29:10.501Z,3.80
2022-09-04T17:29:47.710Z,4.77
2022-09-04T17:33:36.915Z,4.23
2022-09-04T17:40:35.864Z,4.80
2022-09-04T17:40:53.466Z,4.17
2022-09-04T17:41:57.009Z,4.27
2022-09-04T17:44:35.463Z,3.20
2022-09-04T17:47:23.506Z,4.20
2022-09-04T17:49:52.180Z,3.70
2022-09-04T17:52:48.945Z,3.97
2022-09-04T17:55:15.799Z,4.50
2022-09-04T17:58:03.342Z,4.50
2022-09-04T18:00:34.669Z,5.00
2022-09-04T18:03:24.480Z,3.83
2022-09-04T18:06:00.025Z,4.30
2022-09-04T18:08:38.182Z,3.60
2022-09-04T18:11:17.955Z,4.53
2022-09-04T18:14:02.225Z,3.83
2022-09-04T18:16:47.581Z,3.97
2022-09-04T18:19:31.985Z,4.13
2022-09-04T18:22:26.522Z,4.37
2022-09-04T18:25:18.888Z,5.63
2022-09-04T18:28:25.842Z,4.47
2022-09-04T18:37:09.100Z,5.17
2022-09-04T18:37:25.135Z,4.73
2022-09-04T18:37:45.166Z,4.20
2022-09-04T18:42:34.347Z,4.07
2022-09-04T18:50:20.770Z,3.30
2022-09-04T18:50:35.455Z,4.20
2022-09-04T18:50:51.228Z,4.33
2022-09-04T18:52:17.866Z,4.03
2022-09-04T18:54:51.383Z,4.00
2022-09-04T18:57:29.817Z,4.30
2022-09-04T19:00:08.242Z,4.93
2022-09-04T19:02:45.676Z,4.10
2022-09-04T19:05:20.653Z,3.80
2022-09-04T19:07:57.121Z,4.70
2022-09-04T19:10:28.199Z,3.47
2022-09-04T19:13:13.171Z,4.80
2022-09-04T19:15:45.658Z,3.90
2022-09-04T19:18:26.897Z,4.10
2022-09-04T19:21:10.717Z,4.47
2022-09-04T19:24:04.095Z,4.20
2022-09-04T19:26:56.679Z,5.00
2022-09-04T19:29:38.433Z,5.00
2022-09-04T19:32:36.276Z,5.00
2022-09-04T19:35:13.409Z,4.70
2022-09-04T19:40:16.597Z,3.93
2022-09-04T19:46:01.273Z,5.93
2022-09-04T19:46:05.760Z,4.80
2022-09-04T19:47:00.193Z,4.93
2022-09-04T19:52:56.146Z,5.23
2022-09-04T19:53:30.344Z,4.30
2022-09-04T19:55:41.832Z,4.50
2022-09-04T19:58:10.980Z,6.30
2022-09-04T20:01:00.697Z,5.47
2022-09-04T20:03:34.184Z,5.20
2022-09-04T20:06:21.087Z,4.87
2022-09-04T20:08:53.325Z,3.90
2022-09-04T20:11:40.929Z,4.53
2022-09-04T20:14:24.679Z,5.10
2022-09-04T20:17:07.922Z,4.30
2022-09-04T20:19:48.124Z,4.70
2022-09-04T20:22:37.415Z,4.00
2022-09-04T20:25:06.856Z,4.60
2022-09-04T20:27:46.865Z,4.37
2022-09-04T20:30:19.548Z,4.30
2022-09-04T20:33:01.701Z,4.70
2022-09-04T20:35:41.466Z,4.63
2022-09-04T20:38:23.841Z,4.40
2022-09-04T20:40:56.179Z,4.90
2022-09-04T20:43:31.598Z,6.40
2022-09-04T20:52:44.346Z,4.37
2022-09-04T20:52:53.681Z,5.87
2022-09-04T20:52:57.620Z,5.47
2022-09-04T20:54:50.864Z,4.40
2022-09-04T20:57:42.279Z,4.60
2022-09-04T21:03:15.079Z,4.70
2022-09-04T21:03:28.825Z,4.53
2022-09-04T21:06:12.292Z,5.33
2022-09-04T21:09:00.564Z,4.90
2022-09-04T21:11:39.192Z,3.97
2022-09-04T21:14:13.758Z,5.13
2022-09-04T21:17:29.067Z,5.17
2022-09-04T21:20:10.827Z,5.83
2022-09-04T21:22:48.771Z,4.30
2022-09-04T21:25:29.469Z,4.03
2022-09-04T21:28:18.247Z,5.40
2022-09-04T21:31:03.189Z,5.00
2022-09-04T21:33:36.726Z,5.53
2022-09-04T21:36:26.312Z,4.93
2022-09-04T21:38:59.723Z,5.30
2022-09-04T21:41:47.988Z,4.57
2022-09-04T21:44:51.850Z,4.30
2022-09-04T21:47:18.837Z,4.93
2022-09-04T21:50:08.603Z,4.10
2022-09-04T21:52:51.687Z,4.50
2022-09-04T21:57:20.806Z,3.67
2022-09-04T22:02:36.669Z,6.37
2022-09-04T22:02:46.084Z,4.37
2022-09-04T22:04:50.144Z,4.23
2022-09-04T22:13:26.467Z,4.47
2022-09-04T22:13:31.714Z,3.47
2022-09-04T22:14:03.608Z,4.20
2022-09-04T22:16:51.945Z,5.00
2022-09-04T22:19:42.691Z,5.37
2022-09-04T22:22:30.828Z,4.80
2022-09-04T22:25:23.651Z,3.90
2022-09-04T22:28:08.783Z,4.00
2022-09-04T22:31:09.016Z,4.00
2022-09-04T22:33:46.372Z,4.80
2022-09-04T22:36:42.138Z,3.70
2022-09-04T22:39:31.822Z,4.43
2022-09-04T22:42:29.293Z,4.23
2022-09-04T22:45:17.123Z,3.90
2022-09-04T22:48:23.221Z,4.43
2022-09-04T22:50:56.573Z,3.67
2022-09-04T22:54:01.620Z,4.00
2022-09-04T22:56:30.892Z,4.43
2022-09-04T22:59:26.906Z,4.30
2022-09-04T23:02:15.698Z,4.00
2022-09-04T23:04:59.551Z,4.10
2022-09-04T23:11:30.382Z,4.07
2022-09-04T23:13:53.899Z,4.80
2022-09-04T23:14:05.567Z,4.90
2022-09-04T23:16:44.231Z,4.77
2022-09-04T23:26:37.383Z,4.50
2022-09-04T23:26:42.860Z,3.40
2022-09-04T23:26:55.915Z,3.80
2022-09-04T23:29:03.335Z,4.07
2022-09-04T23:32:13.358Z,4.27
2022-09-04T23:35:15.020Z,4.00
2022-09-04T23:38:03.721Z,4.00
2022-09-04T23:40:53.518Z,3.90
2022-09-04T23:43:35.388Z,3.10
2022-09-04T23:46:29.404Z,5.13
2022-09-04T23:49:06.919Z,4.40
2022-09-04T23:51:52.321Z,4.20
2022-09-04T23:54:34.106Z,4.50
2022-09-04T23:57:11.135Z,4.00
